Portada
METAR-TAF:

METAR-TAF

Aeroports :

Nagasaki, Japó

latitud: 32-55N, longitud: 129-55E, altitud: 2 m

Observació

L'informe es va fer fa 42 minuts, a les 07:00 UTC
Vent 8 kt del Sud, variant entre Sud/Sud-Est i Sud-Oest
Temperatura 27°C
Humitat 58%
Pressió 1009 hPa
Visibilitat 10 km o més
Escasses núvols a una alçada de 3000 ft
Núvols disperses a una alçada de 4000 ft
Cel ennuvolat a una alçada de 5000 ft

METAR: RJFU 310700Z 18008KT 150V220 9999 FEW030 SCT040 BKN050 27/18 Q1009

Hora: 16:42 (07:42 UTC)

Pronòstic

L'informe es va fer fa 2 hores i 37 minuts, a les 05:05 UTC
Pronòstic vàlid del 31 a les 06 UTC al 01 a les 12 UTC
Vent 7 kt del Sud/Sud-Est
Visibilitat 10 km o més
Escasses núvols a una alçada de 3000 ft
Evolucionant progressivament
l' 31 a les 21 UTC al 01 a les 00 UTC
Vent 6 kt del Nord-Oest

TAF: RJFU 310505Z 3106/0112 16007KT 9999 FEW030 BECMG 3121/0100 32006KT

Observacions i pronòstics meteorològics de més de 4000 aeroports (METAR i TAF).

Les estacions disponibles són els punts grocs i vermells al mapa.

Posi el ratolí al punt desitjat per veure el nom de l'estació.

Feu clic per veure les observacions i els pronòstics meteorològics.

Per canviar el mapa: feu clic els botons verds amb una creu de color negre per apropar; al botó verd amb un guió per allunyar la imatge; o en les fletxes verdes per a mapes adjacents.


METAR-TAF: